sensor_id;sensor_type;location;lat;lon;timestamp;P1;durP1;ratioP1;P2;durP2;ratioP2
48853;SDS011;34673;52.808;17.856;2022-12-18T00:01:15;72.47;;;25.35;;
48853;SDS011;34673;52.808;17.856;2022-12-18T00:03:47;71.43;;;25.77;;
48853;SDS011;34673;52.808;17.856;2022-12-18T00:06:15;72.07;;;24.65;;
48853;SDS011;34673;52.808;17.856;2022-12-18T00:08:43;77.35;;;25.23;;
48853;SDS011;34673;52.808;17.856;2022-12-18T00:11:12;70.13;;;26.15;;
48853;SDS011;34673;52.808;17.856;2022-12-18T00:13:41;76.50;;;26.52;;
48853;SDS011;34673;52.808;17.856;2022-12-18T00:16:09;79.60;;;25.88;;
48853;SDS011;34673;52.808;17.856;2022-12-18T00:18:41;79.13;;;26.70;;
48853;SDS011;34673;52.808;17.856;2022-12-18T00:21:09;80.32;;;26.08;;
48853;SDS011;34673;52.808;17.856;2022-12-18T00:23:38;89.47;;;28.08;;
48853;SDS011;34673;52.808;17.856;2022-12-18T00:26:14;87.43;;;27.50;;
48853;SDS011;34673;52.808;17.856;2022-12-18T00:28:48;89.88;;;25.88;;
48853;SDS011;34673;52.808;17.856;2022-12-18T00:31:17;88.15;;;27.08;;
48853;SDS011;34673;52.808;17.856;2022-12-18T00:33:46;86.25;;;26.65;;
48853;SDS011;34673;52.808;17.856;2022-12-18T00:36:20;84.57;;;24.90;;
48853;SDS011;34673;52.808;17.856;2022-12-18T00:38:51;81.40;;;25.27;;
48853;SDS011;34673;52.808;17.856;2022-12-18T00:41:18;77.32;;;24.30;;
48853;SDS011;34673;52.808;17.856;2022-12-18T00:44:04;71.15;;;23.27;;
48853;SDS011;34673;52.808;17.856;2022-12-18T00:46:33;79.35;;;24.08;;
48853;SDS011;34673;52.808;17.856;2022-12-18T00:49:00;76.50;;;23.98;;
48853;SDS011;34673;52.808;17.856;2022-12-18T00:51:27;88.15;;;26.13;;
48853;SDS011;34673;52.808;17.856;2022-12-18T00:53:54;78.45;;;23.95;;
48853;SDS011;34673;52.808;17.856;2022-12-18T00:56:22;89.53;;;25.98;;
48853;SDS011;34673;52.808;17.856;2022-12-18T00:58:51;92.47;;;27.27;;
48853;SDS011;34673;52.808;17.856;2022-12-18T01:01:18;78.68;;;25.75;;
48853;SDS011;34673;52.808;17.856;2022-12-18T01:03:45;86.97;;;26.75;;
48853;SDS011;34673;52.808;17.856;2022-12-18T01:06:15;87.53;;;25.88;;
48853;SDS011;34673;52.808;17.856;2022-12-18T01:08:42;70.15;;;24.13;;
48853;SDS011;34673;52.808;17.856;2022-12-18T01:11:12;79.00;;;25.42;;
48853;SDS011;34673;52.808;17.856;2022-12-18T01:13:44;78.82;;;24.25;;
48853;SDS011;34673;52.808;17.856;2022-12-18T01:16:14;75.85;;;23.90;;
48853;SDS011;34673;52.808;17.856;2022-12-18T01:18:43;66.75;;;21.25;;
48853;SDS011;34673;52.808;17.856;2022-12-18T01:21:11;65.82;;;22.08;;
48853;SDS011;34673;52.808;17.856;2022-12-18T01:23:41;63.75;;;21.90;;
48853;SDS011;34673;52.808;17.856;2022-12-18T01:26:12;66.70;;;22.88;;
48853;SDS011;34673;52.808;17.856;2022-12-18T01:31:18;74.07;;;23.15;;
48853;SDS011;34673;52.808;17.856;2022-12-18T01:33:47;74.05;;;23.65;;
48853;SDS011;34673;52.808;17.856;2022-12-18T01:36:17;69.38;;;22.85;;
48853;SDS011;34673;52.808;17.856;2022-12-18T01:38:49;66.65;;;22.55;;
48853;SDS011;34673;52.808;17.856;2022-12-18T01:41:19;69.43;;;22.00;;
48853;SDS011;34673;52.808;17.856;2022-12-18T01:43:55;58.15;;;21.02;;
48853;SDS011;34673;52.808;17.856;2022-12-18T01:46:24;63.90;;;21.42;;
48853;SDS011;34673;52.808;17.856;2022-12-18T01:48:59;51.15;;;18.67;;
48853;SDS011;34673;52.808;17.856;2022-12-18T01:51:28;61.05;;;20.52;;
48853;SDS011;34673;52.808;17.856;2022-12-18T01:53:57;67.55;;;21.85;;
48853;SDS011;34673;52.808;17.856;2022-12-18T01:56:26;66.05;;;21.38;;
48853;SDS011;34673;52.808;17.856;2022-12-18T01:58:58;59.20;;;20.52;;
48853;SDS011;34673;52.808;17.856;2022-12-18T02:01:29;63.60;;;20.85;;
48853;SDS011;34673;52.808;17.856;2022-12-18T02:07:07;65.82;;;22.02;;
48853;SDS011;34673;52.808;17.856;2022-12-18T02:09:48;67.32;;;21.90;;
48853;SDS011;34673;52.808;17.856;2022-12-18T02:12:22;67.80;;;22.08;;
48853;SDS011;34673;52.808;17.856;2022-12-18T02:18:01;60.83;;;21.10;;
48853;SDS011;34673;52.808;17.856;2022-12-18T02:20:36;78.90;;;24.48;;
48853;SDS011;34673;52.808;17.856;2022-12-18T02:28:49;71.47;;;23.45;;
48853;SDS011;34673;52.808;17.856;2022-12-18T02:31:21;80.25;;;23.98;;
48853;SDS011;34673;52.808;17.856;2022-12-18T02:33:53;77.53;;;24.02;;
48853;SDS011;34673;52.808;17.856;2022-12-18T02:36:23;80.00;;;25.23;;
48853;SDS011;34673;52.808;17.856;2022-12-18T02:38:54;75.55;;;24.65;;
48853;SDS011;34673;52.808;17.856;2022-12-18T02:41:23;78.18;;;25.20;;
48853;SDS011;34673;52.808;17.856;2022-12-18T02:43:58;86.45;;;24.92;;
48853;SDS011;34673;52.808;17.856;2022-12-18T02:46:32;87.05;;;25.67;;
48853;SDS011;34673;52.808;17.856;2022-12-18T02:49:15;79.95;;;24.83;;
48853;SDS011;34673;52.808;17.856;2022-12-18T03:03:16;80.32;;;25.20;;
48853;SDS011;34673;52.808;17.856;2022-12-18T03:08:28;80.63;;;25.88;;
48853;SDS011;34673;52.808;17.856;2022-12-18T03:11:00;82.65;;;26.48;;
48853;SDS011;34673;52.808;17.856;2022-12-18T03:13:36;81.40;;;27.88;;
48853;SDS011;34673;52.808;17.856;2022-12-18T03:16:12;80.90;;;26.30;;
48853;SDS011;34673;52.808;17.856;2022-12-18T03:18:48;84.15;;;26.60;;
48853;SDS011;34673;52.808;17.856;2022-12-18T03:21:21;73.75;;;23.92;;
48853;SDS011;34673;52.808;17.856;2022-12-18T03:23:55;86.57;;;26.20;;
48853;SDS011;34673;52.808;17.856;2022-12-18T03:26:25;89.00;;;26.63;;
48853;SDS011;34673;52.808;17.856;2022-12-18T03:28:59;84.00;;;27.42;;
48853;SDS011;34673;52.808;17.856;2022-12-18T03:31:31;77.68;;;26.48;;
48853;SDS011;34673;52.808;17.856;2022-12-18T03:34:03;86.93;;;26.83;;
48853;SDS011;34673;52.808;17.856;2022-12-18T03:36:41;72.35;;;24.60;;
48853;SDS011;34673;52.808;17.856;2022-12-18T03:39:08;79.53;;;26.33;;
48853;SDS011;34673;52.808;17.856;2022-12-18T03:50:42;68.45;;;24.25;;
48853;SDS011;34673;52.808;17.856;2022-12-18T03:53:41;73.65;;;25.17;;
48853;SDS011;34673;52.808;17.856;2022-12-18T03:56:09;79.78;;;25.98;;
48853;SDS011;34673;52.808;17.856;2022-12-18T03:58:40;75.43;;;25.35;;
48853;SDS011;34673;52.808;17.856;2022-12-18T04:01:22;75.07;;;24.42;;
48853;SDS011;34673;52.808;17.856;2022-12-18T04:03:56;72.13;;;24.80;;
48853;SDS011;34673;52.808;17.856;2022-12-18T04:06:28;73.88;;;24.85;;
48853;SDS011;34673;52.808;17.856;2022-12-18T04:08:57;68.25;;;22.63;;
48853;SDS011;34673;52.808;17.856;2022-12-18T04:11:25;77.85;;;24.73;;
48853;SDS011;34673;52.808;17.856;2022-12-18T04:13:56;81.55;;;24.80;;
48853;SDS011;34673;52.808;17.856;2022-12-18T04:16:24;70.18;;;23.38;;
48853;SDS011;34673;52.808;17.856;2022-12-18T04:18:55;67.63;;;21.83;;
48853;SDS011;34673;52.808;17.856;2022-12-18T04:21:24;67.20;;;22.20;;
48853;SDS011;34673;52.808;17.856;2022-12-18T04:23:52;68.97;;;23.00;;
48853;SDS011;34673;52.808;17.856;2022-12-18T04:26:21;61.23;;;22.47;;
48853;SDS011;34673;52.808;17.856;2022-12-18T04:29:12;71.53;;;23.00;;
48853;SDS011;34673;52.808;17.856;2022-12-18T04:31:39;80.25;;;23.70;;
48853;SDS011;34673;52.808;17.856;2022-12-18T04:34:06;72.70;;;23.10;;
48853;SDS011;34673;52.808;17.856;2022-12-18T04:36:39;63.72;;;21.13;;
48853;SDS011;34673;52.808;17.856;2022-12-18T04:39:06;74.72;;;23.70;;
48853;SDS011;34673;52.808;17.856;2022-12-18T04:41:34;65.03;;;20.45;;
48853;SDS011;34673;52.808;17.856;2022-12-18T04:44:02;78.57;;;23.33;;
48853;SDS011;34673;52.808;17.856;2022-12-18T04:46:29;68.35;;;22.20;;
48853;SDS011;34673;52.808;17.856;2022-12-18T04:48:56;66.38;;;21.75;;
48853;SDS011;34673;52.808;17.856;2022-12-18T04:51:23;72.03;;;23.30;;
48853;SDS011;34673;52.808;17.856;2022-12-18T04:53:52;65.55;;;20.95;;
48853;SDS011;34673;52.808;17.856;2022-12-18T04:56:20;65.75;;;21.15;;
48853;SDS011;34673;52.808;17.856;2022-12-18T04:58:47;65.78;;;19.65;;
48853;SDS011;34673;52.808;17.856;2022-12-18T05:01:15;66.55;;;20.83;;
48853;SDS011;34673;52.808;17.856;2022-12-18T05:03:44;63.58;;;20.13;;
48853;SDS011;34673;52.808;17.856;2022-12-18T05:06:11;57.65;;;18.77;;
48853;SDS011;34673;52.808;17.856;2022-12-18T05:08:39;60.47;;;18.27;;
48853;SDS011;34673;52.808;17.856;2022-12-18T05:11:10;66.75;;;18.85;;
48853;SDS011;34673;52.808;17.856;2022-12-18T05:13:39;52.13;;;17.30;;
48853;SDS011;34673;52.808;17.856;2022-12-18T05:16:06;54.67;;;17.65;;
48853;SDS011;34673;52.808;17.856;2022-12-18T05:18:34;59.15;;;18.52;;
48853;SDS011;34673;52.808;17.856;2022-12-18T05:21:01;58.80;;;17.17;;
48853;SDS011;34673;52.808;17.856;2022-12-18T05:23:29;60.33;;;19.92;;
48853;SDS011;34673;52.808;17.856;2022-12-18T05:25:57;48.50;;;15.98;;
48853;SDS011;34673;52.808;17.856;2022-12-18T05:28:26;50.55;;;16.85;;
48853;SDS011;34673;52.808;17.856;2022-12-18T05:30:55;52.08;;;17.60;;
48853;SDS011;34673;52.808;17.856;2022-12-18T05:33:26;44.78;;;16.23;;
48853;SDS011;34673;52.808;17.856;2022-12-18T05:35:58;49.35;;;16.52;;
48853;SDS011;34673;52.808;17.856;2022-12-18T05:38:27;55.03;;;17.48;;
48853;SDS011;34673;52.808;17.856;2022-12-18T05:40:56;42.40;;;15.75;;
48853;SDS011;34673;52.808;17.856;2022-12-18T05:43:24;44.20;;;15.00;;
48853;SDS011;34673;52.808;17.856;2022-12-18T05:45:52;48.88;;;16.02;;
48853;SDS011;34673;52.808;17.856;2022-12-18T05:48:20;58.33;;;15.57;;
48853;SDS011;34673;52.808;17.856;2022-12-18T05:50:48;50.17;;;14.82;;
48853;SDS011;34673;52.808;17.856;2022-12-18T05:53:17;39.87;;;14.80;;
48853;SDS011;34673;52.808;17.856;2022-12-18T05:55:45;54.03;;;15.38;;
48853;SDS011;34673;52.808;17.856;2022-12-18T05:58:13;42.08;;;15.00;;
48853;SDS011;34673;52.808;17.856;2022-12-18T06:00:42;42.72;;;14.30;;
48853;SDS011;34673;52.808;17.856;2022-12-18T06:03:11;45.30;;;15.38;;
48853;SDS011;34673;52.808;17.856;2022-12-18T06:05:43;50.97;;;16.17;;
48853;SDS011;34673;52.808;17.856;2022-12-18T06:08:12;38.20;;;14.48;;
48853;SDS011;34673;52.808;17.856;2022-12-18T06:10:40;40.28;;;14.15;;
48853;SDS011;34673;52.808;17.856;2022-12-18T06:13:08;37.20;;;13.57;;
48853;SDS011;34673;52.808;17.856;2022-12-18T06:15:38;33.55;;;12.52;;
48853;SDS011;34673;52.808;17.856;2022-12-18T06:18:05;42.08;;;14.73;;
48853;SDS011;34673;52.808;17.856;2022-12-18T06:20:32;41.05;;;14.20;;
48853;SDS011;34673;52.808;17.856;2022-12-18T06:23:00;45.25;;;14.50;;
48853;SDS011;34673;52.808;17.856;2022-12-18T06:25:27;41.05;;;14.07;;
48853;SDS011;34673;52.808;17.856;2022-12-18T06:27:54;40.58;;;14.43;;
48853;SDS011;34673;52.808;17.856;2022-12-18T06:30:21;52.85;;;15.18;;
48853;SDS011;34673;52.808;17.856;2022-12-18T06:32:48;38.78;;;14.35;;
48853;SDS011;34673;52.808;17.856;2022-12-18T06:35:22;45.90;;;14.98;;
48853;SDS011;34673;52.808;17.856;2022-12-18T06:37:49;47.05;;;17.08;;
48853;SDS011;34673;52.808;17.856;2022-12-18T06:40:16;46.28;;;16.45;;
48853;SDS011;34673;52.808;17.856;2022-12-18T06:42:43;45.55;;;15.35;;
48853;SDS011;34673;52.808;17.856;2022-12-18T06:45:10;50.53;;;16.80;;
48853;SDS011;34673;52.808;17.856;2022-12-18T06:47:38;50.85;;;17.02;;
48853;SDS011;34673;52.808;17.856;2022-12-18T06:50:05;51.00;;;17.85;;
48853;SDS011;34673;52.808;17.856;2022-12-18T06:52:33;54.05;;;18.35;;
48853;SDS011;34673;52.808;17.856;2022-12-18T06:55:00;54.92;;;18.40;;
48853;SDS011;34673;52.808;17.856;2022-12-18T06:57:27;50.22;;;18.38;;
48853;SDS011;34673;52.808;17.856;2022-12-18T06:59:54;61.50;;;19.95;;
48853;SDS011;34673;52.808;17.856;2022-12-18T07:02:21;56.20;;;18.77;;
48853;SDS011;34673;52.808;17.856;2022-12-18T07:04:48;57.72;;;20.15;;
48853;SDS011;34673;52.808;17.856;2022-12-18T07:07:17;56.58;;;17.75;;
48853;SDS011;34673;52.808;17.856;2022-12-18T07:09:44;58.47;;;18.10;;
48853;SDS011;34673;52.808;17.856;2022-12-18T07:12:11;46.65;;;16.60;;
48853;SDS011;34673;52.808;17.856;2022-12-18T07:14:38;47.85;;;16.08;;
48853;SDS011;34673;52.808;17.856;2022-12-18T07:17:05;56.72;;;18.52;;
48853;SDS011;34673;52.808;17.856;2022-12-18T07:19:32;50.92;;;17.30;;
48853;SDS011;34673;52.808;17.856;2022-12-18T07:22:00;56.17;;;18.17;;
48853;SDS011;34673;52.808;17.856;2022-12-18T07:24:28;60.20;;;18.95;;
48853;SDS011;34673;52.808;17.856;2022-12-18T07:26:55;53.70;;;17.83;;
48853;SDS011;34673;52.808;17.856;2022-12-18T07:29:22;55.85;;;18.30;;
48853;SDS011;34673;52.808;17.856;2022-12-18T07:31:49;49.03;;;16.60;;
48853;SDS011;34673;52.808;17.856;2022-12-18T07:34:17;63.25;;;18.60;;
48853;SDS011;34673;52.808;17.856;2022-12-18T07:36:44;57.55;;;18.25;;
48853;SDS011;34673;52.808;17.856;2022-12-18T07:39:11;55.72;;;17.90;;
48853;SDS011;34673;52.808;17.856;2022-12-18T07:41:38;60.40;;;19.38;;
48853;SDS011;34673;52.808;17.856;2022-12-18T07:44:14;61.15;;;18.65;;
48853;SDS011;34673;52.808;17.856;2022-12-18T07:46:41;57.25;;;18.90;;
48853;SDS011;34673;52.808;17.856;2022-12-18T07:49:09;68.45;;;19.85;;
48853;SDS011;34673;52.808;17.856;2022-12-18T07:51:35;62.25;;;21.23;;
48853;SDS011;34673;52.808;17.856;2022-12-18T07:54:03;65.25;;;21.00;;
48853;SDS011;34673;52.808;17.856;2022-12-18T07:56:31;65.93;;;20.23;;
48853;SDS011;34673;52.808;17.856;2022-12-18T07:58:58;59.47;;;19.50;;
48853;SDS011;34673;52.808;17.856;2022-12-18T08:01:26;55.63;;;18.77;;
48853;SDS011;34673;52.808;17.856;2022-12-18T08:03:53;64.90;;;19.67;;
48853;SDS011;34673;52.808;17.856;2022-12-18T08:06:20;60.60;;;20.05;;
48853;SDS011;34673;52.808;17.856;2022-12-18T08:08:51;69.25;;;21.45;;
48853;SDS011;34673;52.808;17.856;2022-12-18T08:11:19;65.57;;;21.40;;
48853;SDS011;34673;52.808;17.856;2022-12-18T08:13:47;72.45;;;22.63;;
48853;SDS011;34673;52.808;17.856;2022-12-18T08:16:14;77.32;;;21.58;;
48853;SDS011;34673;52.808;17.856;2022-12-18T08:18:42;70.13;;;20.77;;
48853;SDS011;34673;52.808;17.856;2022-12-18T08:21:10;67.68;;;21.45;;
48853;SDS011;34673;52.808;17.856;2022-12-18T08:23:42;67.20;;;22.48;;
48853;SDS011;34673;52.808;17.856;2022-12-18T08:26:11;63.22;;;20.27;;
48853;SDS011;34673;52.808;17.856;2022-12-18T08:28:38;77.60;;;23.25;;
48853;SDS011;34673;52.808;17.856;2022-12-18T08:31:06;74.75;;;23.85;;
48853;SDS011;34673;52.808;17.856;2022-12-18T08:33:35;61.85;;;19.80;;
48853;SDS011;34673;52.808;17.856;2022-12-18T08:36:04;60.70;;;20.13;;
48853;SDS011;34673;52.808;17.856;2022-12-18T08:38:32;54.40;;;19.45;;
48853;SDS011;34673;52.808;17.856;2022-12-18T08:41:00;66.78;;;21.63;;
48853;SDS011;34673;52.808;17.856;2022-12-18T08:43:27;60.35;;;19.52;;
48853;SDS011;34673;52.808;17.856;2022-12-18T08:46:13;58.97;;;19.85;;
48853;SDS011;34673;52.808;17.856;2022-12-18T08:51:10;61.10;;;19.55;;
48853;SDS011;34673;52.808;17.856;2022-12-18T08:53:37;63.42;;;20.52;;
48853;SDS011;34673;52.808;17.856;2022-12-18T08:56:05;67.20;;;21.25;;
48853;SDS011;34673;52.808;17.856;2022-12-18T08:58:33;64.85;;;19.35;;
48853;SDS011;34673;52.808;17.856;2022-12-18T09:01:04;67.60;;;20.95;;
48853;SDS011;34673;52.808;17.856;2022-12-18T09:03:36;68.35;;;20.27;;
48853;SDS011;34673;52.808;17.856;2022-12-18T09:06:04;62.10;;;19.77;;
48853;SDS011;34673;52.808;17.856;2022-12-18T09:08:31;53.55;;;18.83;;
48853;SDS011;34673;52.808;17.856;2022-12-18T09:11:03;56.00;;;18.38;;
48853;SDS011;34673;52.808;17.856;2022-12-18T09:13:31;52.20;;;17.92;;
48853;SDS011;34673;52.808;17.856;2022-12-18T09:15:58;58.35;;;18.55;;
48853;SDS011;34673;52.808;17.856;2022-12-18T09:18:25;57.83;;;19.58;;
48853;SDS011;34673;52.808;17.856;2022-12-18T09:20:52;57.63;;;18.67;;
48853;SDS011;34673;52.808;17.856;2022-12-18T09:23:21;53.58;;;18.58;;
48853;SDS011;34673;52.808;17.856;2022-12-18T09:25:49;58.63;;;19.00;;
48853;SDS011;34673;52.808;17.856;2022-12-18T09:28:16;58.42;;;18.90;;
48853;SDS011;34673;52.808;17.856;2022-12-18T09:30:46;57.97;;;20.10;;
48853;SDS011;34673;52.808;17.856;2022-12-18T09:33:16;60.65;;;21.02;;
48853;SDS011;34673;52.808;17.856;2022-12-18T09:35:44;62.70;;;20.73;;
48853;SDS011;34673;52.808;17.856;2022-12-18T09:38:15;64.90;;;21.02;;
48853;SDS011;34673;52.808;17.856;2022-12-18T09:40:45;66.57;;;21.90;;
48853;SDS011;34673;52.808;17.856;2022-12-18T09:43:19;62.63;;;21.60;;
48853;SDS011;34673;52.808;17.856;2022-12-18T09:45:55;58.55;;;19.38;;
48853;SDS011;34673;52.808;17.856;2022-12-18T09:48:32;63.10;;;21.25;;
48853;SDS011;34673;52.808;17.856;2022-12-18T09:51:15;63.20;;;19.92;;
48853;SDS011;34673;52.808;17.856;2022-12-18T09:53:47;65.45;;;21.45;;
48853;SDS011;34673;52.808;17.856;2022-12-18T09:56:20;61.35;;;20.35;;
48853;SDS011;34673;52.808;17.856;2022-12-18T09:58:53;63.23;;;21.23;;
48853;SDS011;34673;52.808;17.856;2022-12-18T10:01:25;59.28;;;20.42;;
48853;SDS011;34673;52.808;17.856;2022-12-18T10:04:08;58.70;;;19.60;;
48853;SDS011;34673;52.808;17.856;2022-12-18T10:06:38;62.50;;;20.80;;
48853;SDS011;34673;52.808;17.856;2022-12-18T10:17:00;61.20;;;19.85;;
48853;SDS011;34673;52.808;17.856;2022-12-18T10:22:43;60.10;;;20.52;;
48853;SDS011;34673;52.808;17.856;2022-12-18T10:25:39;64.28;;;21.83;;
48853;SDS011;34673;52.808;17.856;2022-12-18T10:28:12;60.97;;;21.58;;
48853;SDS011;34673;52.808;17.856;2022-12-18T10:30:42;63.40;;;20.98;;
48853;SDS011;34673;52.808;17.856;2022-12-18T10:33:18;63.60;;;22.67;;
48853;SDS011;34673;52.808;17.856;2022-12-18T10:35:48;63.55;;;20.23;;
48853;SDS011;34673;52.808;17.856;2022-12-18T10:38:26;56.67;;;20.50;;
48853;SDS011;34673;52.808;17.856;2022-12-18T10:41:00;56.92;;;19.65;;
48853;SDS011;34673;52.808;17.856;2022-12-18T10:43:33;66.47;;;22.55;;
48853;SDS011;34673;52.808;17.856;2022-12-18T10:46:11;73.00;;;22.42;;
48853;SDS011;34673;52.808;17.856;2022-12-18T10:48:47;60.57;;;22.00;;
48853;SDS011;34673;52.808;17.856;2022-12-18T10:56:33;65.40;;;22.15;;
48853;SDS011;34673;52.808;17.856;2022-12-18T11:04:27;95.45;;;27.45;;
48853;SDS011;34673;52.808;17.856;2022-12-18T11:09:31;88.45;;;26.92;;
48853;SDS011;34673;52.808;17.856;2022-12-18T11:12:01;96.03;;;30.20;;
48853;SDS011;34673;52.808;17.856;2022-12-18T11:14:34;94.85;;;31.85;;
48853;SDS011;34673;52.808;17.856;2022-12-18T11:19:53;86.82;;;28.73;;
48853;SDS011;34673;52.808;17.856;2022-12-18T11:22:32;90.68;;;27.80;;
48853;SDS011;34673;52.808;17.856;2022-12-18T11:25:05;110.03;;;32.65;;
48853;SDS011;34673;52.808;17.856;2022-12-18T11:28:02;88.97;;;27.93;;
48853;SDS011;34673;52.808;17.856;2022-12-18T11:30:49;85.10;;;27.00;;
48853;SDS011;34673;52.808;17.856;2022-12-18T11:33:34;91.03;;;28.65;;
48853;SDS011;34673;52.808;17.856;2022-12-18T11:36:04;95.97;;;29.67;;
48853;SDS011;34673;52.808;17.856;2022-12-18T11:38:37;91.00;;;28.27;;
48853;SDS011;34673;52.808;17.856;2022-12-18T11:41:10;93.35;;;29.15;;
48853;SDS011;34673;52.808;17.856;2022-12-18T11:43:47;91.90;;;30.17;;
48853;SDS011;34673;52.808;17.856;2022-12-18T11:49:11;85.97;;;27.38;;
48853;SDS011;34673;52.808;17.856;2022-12-18T11:54:36;86.53;;;27.38;;
48853;SDS011;34673;52.808;17.856;2022-12-18T12:00:07;78.07;;;26.52;;
48853;SDS011;34673;52.808;17.856;2022-12-18T12:18:24;71.25;;;22.95;;
48853;SDS011;34673;52.808;17.856;2022-12-18T12:23:48;84.07;;;24.00;;
48853;SDS011;34673;52.808;17.856;2022-12-18T12:26:35;77.32;;;24.05;;
48853;SDS011;34673;52.808;17.856;2022-12-18T12:29:35;80.57;;;24.55;;
48853;SDS011;34673;52.808;17.856;2022-12-18T12:32:22;83.60;;;27.15;;
48853;SDS011;34673;52.808;17.856;2022-12-18T12:40:44;91.63;;;28.33;;
48853;SDS011;34673;52.808;17.856;2022-12-18T12:43:24;87.80;;;27.55;;
48853;SDS011;34673;52.808;17.856;2022-12-18T12:46:11;80.88;;;26.05;;
48853;SDS011;34673;52.808;17.856;2022-12-18T12:53:47;97.05;;;29.15;;
48853;SDS011;34673;52.808;17.856;2022-12-18T12:56:16;106.10;;;31.20;;
48853;SDS011;34673;52.808;17.856;2022-12-18T13:06:50;109.90;;;32.70;;
48853;SDS011;34673;52.808;17.856;2022-12-18T13:10:11;107.88;;;32.33;;
48853;SDS011;34673;52.808;17.856;2022-12-18T13:18:10;107.05;;;31.73;;
48853;SDS011;34673;52.808;17.856;2022-12-18T13:25:53;110.95;;;29.98;;
48853;SDS011;34673;52.808;17.856;2022-12-18T13:31:01;86.47;;;28.05;;
48853;SDS011;34673;52.808;17.856;2022-12-18T13:36:08;90.38;;;27.00;;
48853;SDS011;34673;52.808;17.856;2022-12-18T13:41:54;79.15;;;25.83;;
48853;SDS011;34673;52.808;17.856;2022-12-18T13:45:00;94.68;;;28.10;;
48853;SDS011;34673;52.808;17.856;2022-12-18T13:47:34;99.28;;;28.13;;
48853;SDS011;34673;52.808;17.856;2022-12-18T13:50:10;88.95;;;26.63;;
48853;SDS011;34673;52.808;17.856;2022-12-18T13:53:00;101.55;;;28.17;;
48853;SDS011;34673;52.808;17.856;2022-12-18T13:55:29;90.38;;;27.02;;
48853;SDS011;34673;52.808;17.856;2022-12-18T13:58:03;86.72;;;27.77;;
48853;SDS011;34673;52.808;17.856;2022-12-18T14:00:31;87.10;;;26.73;;
48853;SDS011;34673;52.808;17.856;2022-12-18T14:02:59;91.25;;;27.63;;
48853;SDS011;34673;52.808;17.856;2022-12-18T14:05:28;86.53;;;27.23;;
48853;SDS011;34673;52.808;17.856;2022-12-18T14:08:00;86.97;;;26.75;;
48853;SDS011;34673;52.808;17.856;2022-12-18T14:10:32;80.25;;;25.88;;
48853;SDS011;34673;52.808;17.856;2022-12-18T14:13:24;84.63;;;25.27;;
48853;SDS011;34673;52.808;17.856;2022-12-18T14:15:58;93.50;;;27.45;;
48853;SDS011;34673;52.808;17.856;2022-12-18T14:20:57;87.75;;;28.33;;
48853;SDS011;34673;52.808;17.856;2022-12-18T14:23:36;89.43;;;27.52;;
48853;SDS011;34673;52.808;17.856;2022-12-18T14:26:24;91.95;;;26.83;;
48853;SDS011;34673;52.808;17.856;2022-12-18T14:28:57;75.20;;;23.67;;
48853;SDS011;34673;52.808;17.856;2022-12-18T14:31:28;75.07;;;24.88;;
48853;SDS011;34673;52.808;17.856;2022-12-18T14:33:58;72.22;;;26.88;;
48853;SDS011;34673;52.808;17.856;2022-12-18T14:36:26;76.82;;;24.92;;
48853;SDS011;34673;52.808;17.856;2022-12-18T14:38:55;81.63;;;25.08;;
48853;SDS011;34673;52.808;17.856;2022-12-18T14:41:24;79.55;;;25.55;;
48853;SDS011;34673;52.808;17.856;2022-12-18T14:43:53;86.47;;;27.08;;
48853;SDS011;34673;52.808;17.856;2022-12-18T14:46:37;91.65;;;28.10;;
48853;SDS011;34673;52.808;17.856;2022-12-18T14:51:54;81.53;;;27.27;;
48853;SDS011;34673;52.808;17.856;2022-12-18T14:54:23;91.90;;;27.63;;
48853;SDS011;34673;52.808;17.856;2022-12-18T14:59:27;81.30;;;28.63;;
48853;SDS011;34673;52.808;17.856;2022-12-18T15:02:17;83.55;;;27.75;;
48853;SDS011;34673;52.808;17.856;2022-12-18T15:04:45;95.28;;;30.85;;
48853;SDS011;34673;52.808;17.856;2022-12-18T15:10:01;82.88;;;26.08;;
48853;SDS011;34673;52.808;17.856;2022-12-18T15:20:43;87.65;;;27.55;;
48853;SDS011;34673;52.808;17.856;2022-12-18T15:23:35;82.93;;;29.00;;
48853;SDS011;34673;52.808;17.856;2022-12-18T15:26:13;86.03;;;27.88;;
48853;SDS011;34673;52.808;17.856;2022-12-18T15:28:55;79.05;;;26.38;;
48853;SDS011;34673;52.808;17.856;2022-12-18T15:31:31;83.00;;;27.73;;
48853;SDS011;34673;52.808;17.856;2022-12-18T15:36:35;97.45;;;33.85;;
48853;SDS011;34673;52.808;17.856;2022-12-18T15:39:03;89.57;;;29.83;;
48853;SDS011;34673;52.808;17.856;2022-12-18T15:41:33;94.78;;;30.40;;
48853;SDS011;34673;52.808;17.856;2022-12-18T15:44:02;97.07;;;31.88;;
48853;SDS011;34673;52.808;17.856;2022-12-18T15:46:30;95.20;;;31.05;;
48853;SDS011;34673;52.808;17.856;2022-12-18T15:48:57;96.95;;;31.17;;
48853;SDS011;34673;52.808;17.856;2022-12-18T15:51:32;89.22;;;30.58;;
48853;SDS011;34673;52.808;17.856;2022-12-18T15:54:02;86.72;;;28.88;;
48853;SDS011;34673;52.808;17.856;2022-12-18T15:56:31;103.95;;;33.78;;
48853;SDS011;34673;52.808;17.856;2022-12-18T15:59:17;94.07;;;30.27;;
48853;SDS011;34673;52.808;17.856;2022-12-18T16:01:47;97.95;;;31.80;;
48853;SDS011;34673;52.808;17.856;2022-12-18T16:04:17;96.45;;;31.33;;
48853;SDS011;34673;52.808;17.856;2022-12-18T16:06:47;102.68;;;32.65;;
48853;SDS011;34673;52.808;17.856;2022-12-18T16:09:35;87.97;;;29.95;;
48853;SDS011;34673;52.808;17.856;2022-12-18T16:12:03;93.07;;;30.15;;
48853;SDS011;34673;52.808;17.856;2022-12-18T16:14:31;84.25;;;28.15;;
48853;SDS011;34673;52.808;17.856;2022-12-18T16:17:03;79.93;;;28.13;;
48853;SDS011;34673;52.808;17.856;2022-12-18T16:19:35;91.28;;;29.38;;
48853;SDS011;34673;52.808;17.856;2022-12-18T16:22:02;74.70;;;25.60;;
48853;SDS011;34673;52.808;17.856;2022-12-18T16:24:31;77.57;;;27.20;;
48853;SDS011;34673;52.808;17.856;2022-12-18T16:27:00;73.03;;;24.00;;
48853;SDS011;34673;52.808;17.856;2022-12-18T16:29:28;77.43;;;24.75;;
48853;SDS011;34673;52.808;17.856;2022-12-18T16:31:56;71.88;;;24.92;;
48853;SDS011;34673;52.808;17.856;2022-12-18T16:34:26;75.80;;;24.60;;
48853;SDS011;34673;52.808;17.856;2022-12-18T16:36:59;81.20;;;24.42;;
48853;SDS011;34673;52.808;17.856;2022-12-18T16:39:32;83.65;;;24.98;;
48853;SDS011;34673;52.808;17.856;2022-12-18T16:42:02;74.05;;;25.13;;
48853;SDS011;34673;52.808;17.856;2022-12-18T16:44:36;78.32;;;25.40;;
48853;SDS011;34673;52.808;17.856;2022-12-18T16:47:03;78.35;;;25.50;;
48853;SDS011;34673;52.808;17.856;2022-12-18T16:49:32;77.07;;;25.65;;
48853;SDS011;34673;52.808;17.856;2022-12-18T16:51:59;81.97;;;26.80;;
48853;SDS011;34673;52.808;17.856;2022-12-18T16:56:56;86.55;;;27.38;;
48853;SDS011;34673;52.808;17.856;2022-12-18T16:59:24;88.20;;;28.15;;
48853;SDS011;34673;52.808;17.856;2022-12-18T17:01:53;86.75;;;26.75;;
48853;SDS011;34673;52.808;17.856;2022-12-18T17:04:21;78.25;;;25.20;;
48853;SDS011;34673;52.808;17.856;2022-12-18T17:06:49;82.00;;;25.95;;
48853;SDS011;34673;52.808;17.856;2022-12-18T17:09:18;85.90;;;26.75;;